Time;durP1;ratioP1;P1;durP2;ratioP2;P2;SDS_P1;SDS_P2;PMS_P1;PMS_P2;Temp;Humidity;BMP_temperature;BMP_pressure;BME280_temperature;BME280_humidity;BME280_pressure;Samples;Min_cycle;Max_cycle;Signal;HPM_P1;HPM_P2
2023/04/27 00:01:42;;;;;;;1.00;0.80;;;;;;;7.31;82.69;98697.98;107582;1254;75884;-38
2023/04/27 00:04:10;;;;;;;2.10;1.10;;;;;;;7.27;82.69;98701.89;107607;1253;69528;-38
2023/04/27 00:06:37;;;;;;;4.50;1.10;;;;;;;7.21;82.85;98706.40;107590;1254;75288;-38
2023/04/27 00:09:05;;;;;;;1.40;0.90;;;;;;;7.24;82.97;98705.23;107540;1254;62820;-38
2023/04/27 00:11:32;;;;;;;1.10;0.80;;;;;;;7.25;82.62;98706.48;107580;1255;62004;-38
2023/04/27 00:13:59;;;;;;;1.40;0.90;;;;;;;7.21;82.90;98708.23;107496;1253;74919;-38
2023/04/27 00:16:26;;;;;;;2.00;0.90;;;;;;;7.18;83.20;98705.33;107526;1254;69610;-37
2023/04/27 00:18:54;;;;;;;1.80;1.10;;;;;;;7.16;82.87;98708.91;107487;1257;74804;-38
2023/04/27 00:21:21;;;;;;;1.20;0.90;;;;;;;7.13;82.76;98710.30;107568;1254;62753;-38
2023/04/27 00:23:49;;;;;;;2.40;1.20;;;;;;;7.08;82.83;98720.74;107507;1252;62603;-37
2023/04/27 00:26:16;;;;;;;1.40;1.20;;;;;;;6.99;83.22;98721.70;107555;1254;76100;-38
2023/04/27 00:28:44;;;;;;;1.20;0.90;;;;;;;6.93;83.69;98715.77;107605;1254;68218;-38
2023/04/27 00:31:11;;;;;;;1.20;1.10;;;;;;;6.97;83.93;98719.03;107547;1254;74960;-38
2023/04/27 00:33:38;;;;;;;1.10;0.90;;;;;;;7.05;83.83;98720.05;106831;1257;1003044;-38
2023/04/27 00:36:06;;;;;;;1.50;0.90;;;;;;;7.06;83.57;98720.31;107567;1254;60317;-38
2023/04/27 00:38:33;;;;;;;1.00;0.90;;;;;;;6.99;82.67;98725.09;107547;1259;75125;-38
2023/04/27 00:41:04;;;;;;;0.90;0.90;;;;;;;6.93;82.64;98724.33;107560;1254;70134;-38
2023/04/27 00:43:31;;;;;;;2.00;1.10;;;;;;;6.94;82.79;98721.98;107600;1254;71854;-38
2023/04/27 00:45:59;;;;;;;1.70;1.50;;;;;;;6.93;82.86;98719.87;107464;1255;61586;-38
2023/04/27 00:48:26;;;;;;;1.60;0.90;;;;;;;6.87;82.94;98723.65;107641;1254;60302;-38
2023/04/27 00:50:53;;;;;;;1.70;1.20;;;;;;;6.80;83.29;98729.03;107422;1259;73986;-38
2023/04/27 00:53:21;;;;;;;2.60;1.10;;;;;;;6.81;83.36;98735.92;107483;1253;70267;-38
2023/04/27 00:55:48;;;;;;;1.30;1.20;;;;;;;6.80;83.18;98735.50;107581;1254;73796;-38
2023/04/27 00:58:15;;;;;;;2.20;1.00;;;;;;;6.74;83.61;98730.88;107570;1254;62712;-38
2023/04/27 01:00:42;;;;;;;1.90;0.80;;;;;;;6.66;83.77;98728.39;107557;1253;62639;-38
2023/04/27 01:03:10;;;;;;;1.20;0.80;;;;;;;6.66;83.78;98727.02;107599;1254;76153;-38
2023/04/27 01:05:37;;;;;;;1.10;1.00;;;;;;;6.69;83.71;98727.75;107596;1254;70264;-38
2023/04/27 01:08:06;;;;;;;1.40;1.00;;;;;;;6.66;83.74;98727.46;107428;1254;73144;-39
2023/04/27 01:10:34;;;;;;;1.90;1.20;;;;;;;6.59;83.81;98728.44;107387;1253;62347;-39
2023/04/27 01:13:02;;;;;;;1.20;0.90;;;;;;;6.55;84.36;98724.50;107610;1256;61687;-39
2023/04/27 01:15:30;;;;;;;1.10;1.00;;;;;;;6.60;84.29;98722.70;107545;1252;75865;-39
2023/04/27 01:18:00;;;;;;;2.70;1.10;;;;;;;6.66;84.21;98724.67;107591;1254;69964;-39
2023/04/27 01:20:29;;;;;;;1.10;0.90;;;;;;;6.64;84.14;98730.34;107513;1253;75035;-39
2023/04/27 01:22:57;;;;;;;1.40;1.10;;;;;;;6.64;84.29;98732.33;107539;1254;62721;-39
2023/04/27 01:25:24;;;;;;;1.30;1.00;;;;;;;6.68;84.19;98738.58;107556;1254;62644;-39
2023/04/27 01:27:53;;;;;;;2.40;1.10;;;;;;;6.73;83.94;98736.09;107609;1254;76111;-39
2023/04/27 01:30:21;;;;;;;1.80;0.90;;;;;;;6.76;84.04;98739.55;107642;1254;70251;-38
2023/04/27 01:32:48;;;;;;;1.10;0.90;;;;;;;6.75;83.71;98737.38;107486;1257;73830;-38
2023/04/27 01:35:18;;;;;;;1.00;0.90;;;;;;;6.68;83.63;98742.59;107469;1254;63829;-38
2023/04/27 01:37:45;;;;;;;3.90;1.10;;;;;;;6.70;83.76;98735.50;107585;1254;61113;-38
2023/04/27 01:40:13;;;;;;;1.00;0.90;;;;;;;6.79;83.57;98735.95;107601;1256;75274;-38
2023/04/27 01:42:40;;;;;;;1.50;0.70;;;;;;;6.79;82.96;98742.86;107523;1254;70428;-38
2023/04/27 01:45:09;;;;;;;0.80;0.80;;;;;;;6.76;83.04;98750.87;107504;1253;74951;-38
2023/04/27 01:47:36;;;;;;;0.70;0.70;;;;;;;6.71;82.81;98749.06;107639;1252;63802;-38
2023/04/27 01:50:05;;;;;;;1.10;0.70;;;;;;;6.72;82.81;98755.79;107545;1254;60480;-38
2023/04/27 01:52:32;;;;;;;1.00;0.60;;;;;;;6.74;82.90;98756.22;107652;1254;75814;-38
2023/04/27 01:55:01;;;;;;;1.70;0.90;;;;;;;6.72;82.55;98752.32;107600;1254;67086;-38
2023/04/27 01:57:29;;;;;;;1.20;0.70;;;;;;;6.67;82.54;98749.58;106852;1254;1003538;-38
2023/04/27 01:59:57;;;;;;;2.30;0.50;;;;;;;6.62;82.42;98750.33;107565;1258;63839;-38
2023/04/27 02:02:24;;;;;;;1.30;0.80;;;;;;;6.65;82.64;98747.83;107534;1254;61904;-38
2023/04/27 02:04:51;;;;;;;1.00;0.90;;;;;;;6.64;82.45;98747.80;107580;1252;74257;-38
2023/04/27 02:07:19;;;;;;;1.30;0.90;;;;;;;6.59;82.63;98744.61;107598;1255;69766;-38
2023/04/27 02:09:46;;;;;;;1.10;0.80;;;;;;;6.52;82.64;98748.91;107493;1257;71235;-38
2023/04/27 02:12:13;;;;;;;0.90;0.80;;;;;;;6.50;82.76;98751.40;107476;1254;63528;-38
2023/04/27 02:14:40;;;;;;;0.70;0.60;;;;;;;6.55;82.84;98752.90;107620;1254;61956;-38
2023/04/27 02:17:07;;;;;;;1.00;0.80;;;;;;;6.53;82.77;98754.08;107588;1253;74502;-38
2023/04/27 02:19:35;;;;;;;0.90;0.80;;;;;;;6.48;82.95;98749.73;107519;1253;69743;-38
2023/04/27 02:22:02;;;;;;;0.60;0.60;;;;;;;6.44;82.90;98744.31;107539;1255;74027;-38
2023/04/27 02:24:30;;;;;;;1.60;0.80;;;;;;;6.45;82.81;98749.71;107537;1259;62377;-38
2023/04/27 02:26:59;;;;;;;2.20;0.70;;;;;;;6.46;82.50;98750.23;107622;1254;60444;-38
2023/04/27 02:29:30;;;;;;;1.10;1.00;;;;;;;6.43;82.64;98752.29;107583;1254;76073;-38
2023/04/27 02:34:50;;;;;;;1.40;0.80;;;;;;;6.29;82.39;98761.02;107557;1254;73883;-37
2023/04/27 02:37:17;;;;;;;1.10;0.90;;;;;;;6.27;82.50;98765.19;107538;1254;62715;-38
2023/04/27 02:39:46;;;;;;;1.30;0.70;;;;;;;6.31;82.64;98765.91;107415;1254;178971;-39
2023/04/27 02:44:46;;;;;;;0.70;0.70;;;;;;;6.28;82.66;98760.91;104105;1291;601090;-38
2023/04/27 02:47:14;;;;;;;0.90;0.60;;;;;;;6.26;82.40;98763.91;106558;1266;64067;-38
2023/04/27 02:49:41;;;;;;;0.60;0.60;;;;;;;6.29;82.39;98769.85;106624;1265;61251;-38
2023/04/27 02:52:08;;;;;;;1.30;0.70;;;;;;;6.28;82.25;98773.44;106689;1267;74464;-38
2023/04/27 02:54:36;;;;;;;2.40;1.10;;;;;;;6.23;82.33;98774.92;106627;1267;67986;-38
2023/04/27 02:57:03;;;;;;;1.90;0.90;;;;;;;6.20;82.66;98774.59;106668;1270;73010;-39
2023/04/27 02:59:30;;;;;;;1.00;0.60;;;;;;;6.21;82.38;98774.19;106516;1264;264692;-39
2023/04/27 03:01:57;;;;;;;1.10;0.70;;;;;;;6.23;82.24;98776.63;106721;1263;61735;-38
2023/04/27 03:04:25;;;;;;;1.20;0.90;;;;;;;6.22;82.51;98781.43;106764;1264;72694;-38
2023/04/27 03:06:52;;;;;;;1.30;0.90;;;;;;;6.21;82.79;98785.47;106751;1264;69213;-38
2023/04/27 03:09:19;;;;;;;2.60;1.00;;;;;;;6.20;82.90;98792.38;106691;1264;74078;-39
2023/04/27 03:11:46;;;;;;;1.90;1.00;;;;;;;6.28;82.92;98796.97;106728;1270;63406;-38
2023/04/27 03:14:13;;;;;;;1.20;0.70;;;;;;;6.35;82.80;98803.63;106646;1269;62516;-38
2023/04/27 03:16:41;;;;;;;1.00;0.80;;;;;;;6.37;82.40;98807.92;106609;1270;75090;-38
2023/04/27 03:19:08;;;;;;;1.60;0.80;;;;;;;6.38;82.34;98811.16;106670;1264;69846;-39
2023/04/27 03:21:35;;;;;;;0.70;0.70;;;;;;;6.44;82.02;98811.08;106704;1265;74448;-39
2023/04/27 03:24:03;;;;;;;1.00;0.70;;;;;;;6.48;81.62;98814.91;106674;1264;61261;-38
2023/04/27 03:26:30;;;;;;;1.00;0.60;;;;;;;6.48;81.54;98816.30;106869;1264;61551;-38
2023/04/27 03:28:57;;;;;;;0.90;0.80;;;;;;;6.43;81.46;98816.70;106781;1268;75341;-38
2023/04/27 03:31:36;;;;;;;0.70;0.50;;;;;;;6.39;81.50;98823.96;106745;1264;70277;-38
2023/04/27 03:34:04;;;;;;;0.60;0.60;;;;;;;6.41;81.32;98817.86;106771;1269;75127;-39
2023/04/27 03:36:31;;;;;;;0.70;0.60;;;;;;;6.43;81.40;98822.60;106751;1268;62714;-39
2023/04/27 03:38:58;;;;;;;0.70;0.60;;;;;;;6.44;81.20;98822.41;106758;1264;61151;-39
2023/04/27 03:41:25;;;;;;;0.90;0.70;;;;;;;6.44;81.11;98825.49;106788;1264;73228;-39
2023/04/27 03:43:52;;;;;;;2.40;1.00;;;;;;;6.47;80.39;98824.95;106749;1264;69628;-39
2023/04/27 03:46:20;;;;;;;0.50;0.50;;;;;;;6.54;80.60;98827.66;106737;1269;74227;-38
2023/04/27 03:48:47;;;;;;;0.50;0.50;;;;;;;6.57;80.68;98819.73;106789;1264;61179;-39
2023/04/27 03:51:15;;;;;;;0.60;0.60;;;;;;;6.68;80.57;98828.70;106762;1268;59539;-39
2023/04/27 03:53:43;;;;;;;0.50;0.50;;;;;;;6.70;80.36;98831.08;106826;1264;74160;-39
2023/04/27 03:56:10;;;;;;;0.80;0.60;;;;;;;6.73;79.92;98834.02;106665;1263;70306;-38
2023/04/27 03:58:37;;;;;;;1.00;0.30;;;;;;;6.79;79.42;98833.16;106669;1264;73564;-38
2023/04/27 04:01:13;;;;;;;0.80;0.70;;;;;;;6.78;78.99;98835.34;106657;1263;59603;-39
2023/04/27 04:03:41;;;;;;;0.30;0.30;;;;;;;6.71;79.02;98835.73;106710;1269;59530;-38
2023/04/27 04:06:09;;;;;;;0.50;0.50;;;;;;;6.71;79.38;98835.33;106831;1264;74652;-38
2023/04/27 04:08:37;;;;;;;0.50;0.50;;;;;;;6.77;79.51;98837.48;106815;1264;69866;-39
2023/04/27 04:11:05;;;;;;;1.00;0.50;;;;;;;6.82;79.18;98830.70;106742;1266;74994;-39
2023/04/27 04:13:38;;;;;;;0.50;0.50;;;;;;;6.91;78.77;98840.22;106704;1264;59707;-39
2023/04/27 04:16:07;;;;;;;0.60;0.40;;;;;;;6.87;78.29;98840.35;106739;1264;61713;-39
2023/04/27 04:18:35;;;;;;;0.90;0.60;;;;;;;6.82;78.58;98845.08;106793;1263;74729;-39
2023/04/27 04:21:02;;;;;;;0.70;0.50;;;;;;;6.79;78.45;98844.68;106780;1264;70442;-39
2023/04/27 04:23:31;;;;;;;1.20;0.50;;;;;;;6.80;78.15;98851.25;106748;1265;73585;-39
2023/04/27 04:26:00;;;;;;;0.70;0.70;;;;;;;6.78;78.41;98852.67;106799;1268;60083;-39
2023/04/27 04:28:32;;;;;;;0.90;0.50;;;;;;;6.77;78.56;98847.80;106776;1263;60764;-39
2023/04/27 04:31:03;;;;;;;1.10;0.60;;;;;;;6.75;78.82;98849.00;106749;1263;75106;-39
2023/04/27 04:33:31;;;;;;;0.70;0.60;;;;;;;6.72;78.83;98850.98;106679;1263;70333;-38
2023/04/27 04:35:58;;;;;;;0.70;0.40;;;;;;;6.73;78.57;98848.62;106662;1267;72085;-38
2023/04/27 04:38:25;;;;;;;0.50;0.50;;;;;;;6.73;78.50;98846.23;106656;1263;62783;-38
2023/04/27 04:40:53;;;;;;;1.90;0.50;;;;;;;6.70;78.67;98850.84;106721;1263;60511;-38
2023/04/27 04:43:20;;;;;;;0.40;0.40;;;;;;;6.66;78.91;98846.81;106656;1264;75358;-38
2023/04/27 04:45:49;;;;;;;0.70;0.40;;;;;;;6.63;79.02;98844.98;106999;1260;70461;-38
2023/04/27 04:48:18;;;;;;;0.80;0.40;;;;;;;6.71;79.45;98847.78;106855;1264;74692;-38
2023/04/27 04:50:46;;;;;;;1.20;0.70;;;;;;;6.76;78.94;98845.92;106864;1261;60201;-38
2023/04/27 04:53:13;;;;;;;1.10;0.70;;;;;;;6.74;79.16;98852.17;106864;1261;60275;-38
2023/04/27 04:55:41;;;;;;;2.10;0.80;;;;;;;6.74;79.35;98852.95;106916;1261;71703;-38
2023/04/27 04:58:08;;;;;;;0.60;0.40;;;;;;;6.75;79.22;98856.06;106902;1260;69994;-38
2023/04/27 05:00:35;;;;;;;0.40;0.40;;;;;;;6.79;78.88;98860.71;106914;1260;74941;-38
2023/04/27 05:03:03;;;;;;;1.70;0.50;;;;;;;6.79;78.62;98860.87;106903;1261;60612;-38
2023/04/27 05:05:30;;;;;;;0.70;0.60;;;;;;;6.82;78.74;98870.63;107046;1260;62590;-38
2023/04/27 05:07:57;;;;;;;0.50;0.50;;;;;;;6.77;78.62;98873.18;106912;1260;74668;-39
2023/04/27 05:10:25;;;;;;;1.20;0.40;;;;;;;6.75;78.84;98871.67;106916;1261;66449;-38
2023/04/27 05:12:52;;;;;;;0.90;0.50;;;;;;;6.82;78.98;98872.16;106944;1260;73584;-38
2023/04/27 05:15:21;;;;;;;0.60;0.50;;;;;;;6.92;78.67;98868.65;106879;1263;61445;-38
2023/04/27 05:17:48;;;;;;;0.50;0.50;;;;;;;6.97;78.46;98871.71;106863;1260;61433;-38
2023/04/27 05:20:15;;;;;;;1.00;0.70;;;;;;;6.96;77.93;98868.91;106828;1261;74754;-38
2023/04/27 05:22:42;;;;;;;0.60;0.60;;;;;;;6.88;77.97;98862.86;106848;1261;70126;-38
2023/04/27 05:25:10;;;;;;;0.40;0.40;;;;;;;6.92;78.20;98866.65;106891;1260;74874;-38
2023/04/27 05:27:37;;;;;;;0.60;0.60;;;;;;;7.01;78.62;98864.25;106899;1263;61875;-38
2023/04/27 05:30:05;;;;;;;0.60;0.60;;;;;;;7.08;78.49;98858.67;107002;1260;62345;-38
2023/04/27 05:32:32;;;;;;;0.70;0.60;;;;;;;7.11;78.35;98861.13;106960;1265;75287;-38
2023/04/27 05:34:59;;;;;;;1.30;0.60;;;;;;;7.12;78.06;98863.37;106899;1265;69522;-39
2023/04/27 05:37:27;;;;;;;1.00;0.80;;;;;;;7.13;78.03;98869.65;106899;1260;74999;-39
2023/04/27 05:39:56;;;;;;;0.40;0.40;;;;;;;7.16;77.80;98866.17;106948;1265;64345;-39
2023/04/27 05:42:23;;;;;;;1.00;0.70;;;;;;;7.26;77.51;98873.81;106919;1260;62205;-39
2023/04/27 05:44:50;;;;;;;0.60;0.60;;;;;;;7.27;77.14;98875.46;106977;1260;74854;-38
2023/04/27 05:47:17;;;;;;;2.50;0.90;;;;;;;7.25;77.14;98873.41;106863;1260;70318;-39
2023/04/27 05:49:49;;;;;;;0.60;0.60;;;;;;;7.19;76.96;98876.10;106880;1260;74985;-39
2023/04/27 05:52:16;;;;;;;1.40;0.80;;;;;;;7.15;77.05;98879.89;106894;1260;64234;-39
2023/04/27 05:54:47;;;;;;;0.80;0.80;;;;;;;7.16;77.36;98885.98;106861;1260;62349;-39
2023/04/27 05:57:14;;;;;;;1.00;0.60;;;;;;;7.16;77.35;98889.59;106970;1260;73821;-39
2023/04/27 05:59:42;;;;;;;1.90;0.90;;;;;;;7.18;77.68;98892.33;106209;1260;1002951;-39
2023/04/27 06:02:09;;;;;;;0.90;0.70;;;;;;;7.21;77.38;98889.33;106978;1260;74232;-39
2023/04/27 06:04:36;;;;;;;1.00;0.90;;;;;;;7.20;77.13;98886.98;106905;1261;63977;-39
2023/04/27 06:07:08;;;;;;;0.70;0.70;;;;;;;7.20;76.75;98889.06;106921;1260;62589;-38
2023/04/27 06:09:36;;;;;;;0.80;0.80;;;;;;;7.20;76.79;98888.85;106924;1261;73609;-39
2023/04/27 06:12:04;;;;;;;1.30;0.90;;;;;;;7.17;77.16;98895.61;106907;1265;69924;-39
2023/04/27 06:14:32;;;;;;;1.50;0.90;;;;;;;7.18;77.78;98900.80;106908;1261;73762;-39
2023/04/27 06:16:59;;;;;;;1.10;0.90;;;;;;;7.23;77.68;98901.16;106892;1260;62813;-39
2023/04/27 06:19:26;;;;;;;1.30;0.90;;;;;;;7.29;77.39;98898.77;106916;1263;62355;-39
2023/04/27 06:21:54;;;;;;;1.40;1.00;;;;;;;7.37;77.14;98902.44;107000;1260;75093;-39
2023/04/27 06:24:21;;;;;;;1.50;1.20;;;;;;;7.40;76.80;98901.33;106943;1265;70364;-39
2023/04/27 06:26:48;;;;;;;1.20;1.10;;;;;;;7.38;76.78;98904.31;106867;1260;73706;-39
2023/04/27 06:29:16;;;;;;;1.40;1.10;;;;;;;7.37;76.76;98903.34;106904;1261;62732;-38
2023/04/27 06:31:43;;;;;;;1.30;1.10;;;;;;;7.35;76.43;98905.15;106882;1260;60294;-38
2023/04/27 06:34:10;;;;;;;1.20;0.90;;;;;;;7.36;76.58;98904.18;106878;1260;74438;-38
2023/04/27 06:36:37;;;;;;;2.50;1.10;;;;;;;7.36;76.53;98904.80;106942;1260;70189;-38
2023/04/27 06:39:05;;;;;;;1.20;0.90;;;;;;;7.33;76.44;98908.43;106961;1260;73973;-38
2023/04/27 06:41:32;;;;;;;4.50;1.00;;;;;;;7.31;76.48;98912.68;106874;1265;62628;-38
2023/04/27 06:44:00;;;;;;;1.60;1.20;;;;;;;7.28;76.91;98905.05;106939;1260;61665;-38
2023/04/27 06:46:27;;;;;;;1.10;1.00;;;;;;;7.34;77.17;98899.83;106986;1261;74454;-38
2023/04/27 06:48:54;;;;;;;1.80;1.00;;;;;;;7.43;76.83;98898.33;106963;1265;69801;-38
2023/04/27 06:51:22;;;;;;;1.90;1.10;;;;;;;7.48;76.77;98903.91;106906;1263;71678;-38
2023/04/27 06:53:49;;;;;;;1.60;1.10;;;;;;;7.48;76.22;98906.55;106942;1264;61137;-38
2023/04/27 06:56:16;;;;;;;1.70;1.00;;;;;;;7.48;76.44;98909.85;106905;1260;60334;-38
2023/04/27 06:58:43;;;;;;;1.20;1.10;;;;;;;7.54;76.66;98908.98;106919;1260;73488;-38
2023/04/27 07:01:10;;;;;;;1.50;1.10;;;;;;;7.62;76.34;98907.58;106844;1260;67396;-38
2023/04/27 07:03:37;;;;;;;1.60;1.10;;;;;;;7.65;76.13;98917.34;107123;1258;71863;-38
2023/04/27 07:06:05;;;;;;;2.30;1.20;;;;;;;7.63;75.98;98919.53;107196;1256;60499;-38
2023/04/27 07:08:33;;;;;;;2.10;1.60;;;;;;;7.61;76.12;98920.55;107142;1256;61407;-38
2023/04/27 07:11:00;;;;;;;2.20;1.00;;;;;;;7.60;76.30;98919.77;107166;1257;75723;-39
2023/04/27 07:13:27;;;;;;;1.80;1.50;;;;;;;7.67;76.32;98914.92;107172;1256;70145;-39
2023/04/27 07:15:57;;;;;;;1.90;1.20;;;;;;;7.77;75.85;98917.85;107033;1256;74970;-39
2023/04/27 07:18:26;;;;;;;2.10;1.10;;;;;;;7.77;75.57;98921.56;107176;1256;62646;-39
2023/04/27 07:20:54;;;;;;;2.40;1.40;;;;;;;7.78;76.10;98921.80;107266;1256;62372;-39
2023/04/27 07:23:21;;;;;;;2.90;1.40;;;;;;;7.81;76.09;98927.42;107200;1256;75213;-39
2023/04/27 07:25:49;;;;;;;1.70;1.30;;;;;;;7.81;75.78;98929.12;107244;1256;69492;-39
2023/04/27 07:28:16;;;;;;;2.00;1.40;;;;;;;7.85;75.39;98938.91;107253;1256;74836;-38
2023/04/27 07:30:43;;;;;;;1.70;1.40;;;;;;;7.90;75.05;98939.20;107188;1258;60807;-38
2023/04/27 07:33:10;;;;;;;2.90;1.30;;;;;;;7.93;74.97;98941.64;107187;1260;61968;-39
2023/04/27 07:35:37;;;;;;;2.80;1.60;;;;;;;7.92;74.85;98940.63;107185;1256;75294;-39
2023/04/27 07:38:06;;;;;;;2.50;1.30;;;;;;;7.89;74.65;98947.02;107055;1256;70319;-39
2023/04/27 07:40:33;;;;;;;1.20;1.10;;;;;;;7.82;74.94;98946.13;107109;1257;74548;-40
2023/04/27 07:43:01;;;;;;;2.20;1.30;;;;;;;7.88;75.17;98945.85;107127;1260;61670;-38
2023/04/27 07:45:32;;;;;;;2.40;1.20;;;;;;;7.92;74.73;98951.50;107061;1260;62630;-38
2023/04/27 07:48:00;;;;;;;2.20;1.30;;;;;;;7.88;74.49;98953.88;107162;1256;75971;-38
2023/04/27 07:50:28;;;;;;;4.20;1.50;;;;;;;7.82;74.77;98960.67;107079;1257;69934;-38
2023/04/27 07:52:56;;;;;;;2.20;1.40;;;;;;;7.77;75.14;98956.78;107154;1256;73314;-38
2023/04/27 07:55:24;;;;;;;2.20;1.00;;;;;;;7.83;75.20;98961.09;107138;1256;63086;-38
2023/04/27 07:57:52;;;;;;;1.70;1.20;;;;;;;7.94;74.96;98960.64;107230;1260;61379;-38
2023/04/27 08:00:19;;;;;;;3.40;1.60;;;;;;;8.00;74.45;98963.31;107209;1256;76150;-38
2023/04/27 08:02:46;;;;;;;3.70;1.50;;;;;;;8.00;74.56;98964.88;107265;1256;68990;-39
2023/04/27 08:05:15;;;;;;;3.00;1.40;;;;;;;8.02;74.44;98964.68;107240;1256;71807;-39
2023/04/27 08:07:42;;;;;;;2.40;1.40;;;;;;;8.03;74.58;98968.02;107187;1256;64216;-39
2023/04/27 08:10:11;;;;;;;1.00;0.90;;;;;;;8.09;73.83;98970.55;107223;1256;62607;-39
2023/04/27 08:12:38;;;;;;;2.10;1.40;;;;;;;8.10;73.75;98971.44;107081;1256;72991;-39
2023/04/27 08:15:06;;;;;;;2.00;1.30;;;;;;;8.08;73.51;98974.54;107111;1256;70498;-39
2023/04/27 08:17:35;;;;;;;2.20;1.50;;;;;;;8.07;73.59;98980.54;107183;1256;74687;-39
2023/04/27 08:20:03;;;;;;;2.20;1.30;;;;;;;8.00;73.70;98980.52;107118;1257;64169;-39
2023/04/27 08:22:30;;;;;;;2.10;1.40;;;;;;;8.00;73.97;98981.52;107236;1256;63038;-39
2023/04/27 08:24:58;;;;;;;1.90;1.40;;;;;;;8.02;73.96;98983.12;107233;1256;75250;-39
2023/04/27 08:27:25;;;;;;;2.70;1.60;;;;;;;8.02;74.18;98977.48;107197;1257;67630;-39
2023/04/27 08:29:52;;;;;;;1.70;1.40;;;;;;;7.99;74.00;98976.02;107160;1256;75411;-39
2023/04/27 08:32:19;;;;;;;3.10;1.90;;;;;;;7.93;74.03;98974.82;107184;1256;61135;-39
2023/04/27 08:34:47;;;;;;;3.60;1.60;;;;;;;7.84;73.98;98981.62;107210;1256;62676;-39
2023/04/27 08:37:14;;;;;;;2.60;1.70;;;;;;;7.82;74.09;98979.65;107200;1256;75218;-39
2023/04/27 08:39:41;;;;;;;3.90;1.70;;;;;;;7.87;74.54;98980.23;107195;1256;69714;-39
2023/04/27 08:42:10;;;;;;;3.10;1.80;;;;;;;7.91;73.87;98980.54;107189;1256;74652;-39
2023/04/27 08:44:41;;;;;;;3.50;1.80;;;;;;;7.90;73.63;98980.82;107267;1258;60521;-39
2023/04/27 08:47:08;;;;;;;4.50;1.50;;;;;;;7.86;73.75;98986.98;107174;1256;62067;-38
2023/04/27 08:49:40;;;;;;;1.90;1.40;;;;;;;7.89;73.94;98989.98;107064;1256;76137;-38
2023/04/27 08:52:15;;;;;;;2.90;1.50;;;;;;;7.96;73.79;98993.33;107075;1256;68121;-39
2023/04/27 08:54:42;;;;;;;1.80;1.60;;;;;;;7.98;73.63;98992.90;107178;1256;74550;-39
2023/04/27 08:57:10;;;;;;;2.80;1.90;;;;;;;7.97;73.69;98994.27;107174;1256;62695;-39
2023/04/27 08:59:43;;;;;;;2.20;1.70;;;;;;;7.98;73.70;98997.52;107271;1256;60324;-39
2023/04/27 09:02:19;;;;;;;3.00;1.90;;;;;;;7.98;73.80;98995.45;107400;1256;76114;-39
2023/04/27 09:04:47;;;;;;;2.60;1.70;;;;;;;8.02;73.90;98994.98;107238;1256;67698;-38
2023/04/27 09:07:16;;;;;;;3.80;1.70;;;;;;;8.08;73.89;98994.83;107200;1256;74676;-39
2023/04/27 09:09:43;;;;;;;3.80;1.70;;;;;;;8.13;74.00;98994.39;107174;1257;61479;-38
2023/04/27 09:12:14;;;;;;;3.90;1.40;;;;;;;8.19;73.71;98996.92;107284;1257;61252;-38
2023/04/27 09:14:42;;;;;;;3.20;1.50;;;;;;;8.22;73.34;98997.92;107215;1256;76062;-38
2023/04/27 09:17:09;;;;;;;3.70;1.40;;;;;;;8.24;73.06;98995.17;107216;1256;69859;-38
2023/04/27 09:19:37;;;;;;;2.70;1.60;;;;;;;8.33;73.19;99000.27;107217;1256;73593;-39
2023/04/27 09:22:09;;;;;;;3.90;1.60;;;;;;;8.41;73.00;99000.14;107154;1257;61536;-39
2023/04/27 09:24:37;;;;;;;2.60;1.50;;;;;;;8.42;72.82;98998.53;107221;1257;61044;-39
2023/04/27 09:27:05;;;;;;;4.30;1.70;;;;;;;8.39;72.72;99000.40;107065;1257;75861;-39
2023/04/27 09:29:34;;;;;;;4.20;1.60;;;;;;;8.33;73.20;98996.72;107119;1257;69346;-39
2023/04/27 09:32:02;;;;;;;2.80;1.50;;;;;;;8.28;73.38;98998.83;107215;1257;74566;-39
2023/04/27 09:34:42;;;;;;;2.20;1.30;;;;;;;8.31;73.14;98996.29;106940;1257;63431;-39
2023/04/27 09:37:09;;;;;;;2.90;2.00;;;;;;;8.32;73.11;98999.63;107078;1257;60439;-38
2023/04/27 09:39:37;;;;;;;3.20;2.00;;;;;;;8.26;73.06;98997.08;107115;1257;76171;-39
2023/04/27 09:42:05;;;;;;;3.30;1.80;;;;;;;8.22;73.23;99000.40;107152;1257;69408;-39
2023/04/27 09:44:32;;;;;;;8.10;2.20;;;;;;;8.20;73.50;99002.03;107082;1258;74149;-38
2023/04/27 09:46:59;;;;;;;3.10;1.90;;;;;;;8.16;73.46;99002.48;107129;1257;62961;-39
2023/04/27 09:49:30;;;;;;;2.40;1.40;;;;;;;8.17;73.35;98999.58;107234;1256;61543;-39
2023/04/27 09:51:57;;;;;;;2.60;1.50;;;;;;;8.21;73.66;98998.83;107233;1257;75206;-39
2023/04/27 09:54:27;;;;;;;2.30;1.70;;;;;;;8.22;73.28;99000.08;107221;1257;70300;-38
2023/04/27 09:57:09;;;;;;;3.70;1.40;;;;;;;8.20;73.05;98999.65;107280;1257;72776;-38
2023/04/27 09:59:46;;;;;;;2.30;1.60;;;;;;;8.17;73.21;99005.07;107201;1256;62001;-40
2023/04/27 10:02:16;;;;;;;2.70;1.40;;;;;;;8.18;73.22;99006.39;107149;1256;61477;-39
2023/04/27 10:04:58;;;;;;;2.50;1.50;;;;;;;8.24;73.32;99008.84;107119;1257;75970;-39
2023/04/27 10:07:26;;;;;;;3.40;1.60;;;;;;;8.27;73.20;99011.44;107088;1258;70340;-39
2023/04/27 10:09:53;;;;;;;4.90;1.80;;;;;;;8.27;73.13;99010.84;107160;1257;72767;-39
2023/04/27 10:12:21;;;;;;;2.40;1.50;;;;;;;8.23;73.04;99016.30;107101;1257;62753;-39
2023/04/27 10:14:50;;;;;;;5.80;1.90;;;;;;;8.18;73.16;99016.27;107152;1257;62663;-39
2023/04/27 10:17:18;;;;;;;3.40;1.80;;;;;;;8.19;72.94;99014.29;107132;1257;75966;-39
2023/04/27 10:20:11;;;;;;;2.70;1.80;;;;;;;8.20;72.78;99014.86;107214;1257;69333;-39
2023/04/27 10:22:45;;;;;;;2.50;1.80;;;;;;;8.19;73.11;99014.52;107119;1262;74611;-39
2023/04/27 10:25:13;;;;;;;2.50;1.90;;;;;;;8.15;73.28;99007.95;107264;1257;62207;-39
2023/04/27 10:27:41;;;;;;;2.70;1.90;;;;;;;8.18;73.47;99009.86;107291;1256;62644;-39
2023/04/27 10:30:12;;;;;;;3.70;1.90;;;;;;;8.18;73.25;99019.42;107216;1257;74003;-39
2023/04/27 10:32:52;;;;;;;5.00;1.90;;;;;;;8.24;73.00;99024.04;107157;1257;69824;-39
2023/04/27 10:35:22;;;;;;;;;;;;;;;8.28;72.92;99025.37;107226;1258;74689;-39
2023/04/27 10:37:51;;;;;;;2.70;1.80;;;;;;;8.24;72.92;99023.05;107040;1257;62805;-39
2023/04/27 10:40:19;;;;;;;3.40;2.00;;;;;;;8.20;72.83;99017.78;107059;1257;62468;-40
2023/04/27 10:42:48;;;;;;;3.80;2.10;;;;;;;8.23;72.67;99014.67;107062;1257;75558;-39
2023/04/27 10:45:26;;;;;;;3.20;1.70;;;;;;;8.23;72.52;99014.70;107141;1257;70307;-39
2023/04/27 10:47:59;;;;;;;4.60;1.70;;;;;;;8.25;72.32;99023.52;107079;1257;74903;-39
2023/04/27 10:50:26;;;;;;;3.70;2.10;;;;;;;8.27;72.52;99025.73;107229;1258;62879;-39
2023/04/27 10:52:53;;;;;;;3.10;1.80;;;;;;;8.30;72.50;99030.44;107174;1256;62809;-39
2023/04/27 10:55:21;;;;;;;2.50;2.10;;;;;;;8.29;72.15;99030.98;107023;1257;72451;-39
2023/04/27 10:57:52;;;;;;;5.10;1.90;;;;;;;8.28;72.01;99034.23;107231;1257;68675;-39
2023/04/27 11:00:24;;;;;;;2.70;1.80;;;;;;;8.27;72.23;99037.15;107197;1258;73753;-37
2023/04/27 11:02:52;;;;;;;2.60;1.80;;;;;;;8.33;72.27;99040.93;107216;1257;60904;-38
2023/04/27 11:05:28;;;;;;;5.40;1.90;;;;;;;8.38;72.20;99051.16;107220;1257;62602;-38
2023/04/27 11:08:06;;;;;;;4.40;2.30;;;;;;;8.42;72.24;99051.86;107304;1260;75324;-38
2023/04/27 11:10:36;;;;;;;3.80;1.90;;;;;;;8.45;72.20;99054.88;107244;1257;66744;-38
2023/04/27 11:13:11;;;;;;;3.60;2.00;;;;;;;8.49;71.76;99052.02;107077;1257;74394;-38
2023/04/27 11:15:49;;;;;;;4.60;2.10;;;;;;;8.48;71.43;99049.69;107179;1257;63010;-38
2023/04/27 11:18:18;;;;;;;2.60;1.90;;;;;;;8.53;71.22;99050.33;107107;1257;63054;-38
2023/04/27 11:20:53;;;;;;;4.50;2.30;;;;;;;8.54;71.22;99052.45;107149;1257;74318;-38
2023/04/27 11:23:28;;;;;;;7.00;2.70;;;;;;;8.52;71.22;99049.86;107087;1257;69510;-38
2023/04/27 11:25:55;;;;;;;5.30;3.00;;;;;;;8.49;71.11;99054.71;107138;1262;74983;-38
2023/04/27 11:28:24;;;;;;;6.70;3.20;;;;;;;8.42;71.15;99053.33;107149;1261;62298;-38
2023/04/27 11:30:56;;;;;;;5.90;3.20;;;;;;;8.37;71.14;99056.46;107243;1257;60430;-38
2023/04/27 11:33:24;;;;;;;6.20;2.30;;;;;;;8.30;71.35;99057.21;107129;1257;76291;-38
2023/04/27 11:35:53;;;;;;;5.60;2.90;;;;;;;8.33;71.49;99054.96;107209;1260;70344;-38
2023/04/27 11:38:20;;;;;;;5.30;2.60;;;;;;;8.37;71.52;99050.36;107132;1258;74971;-38
2023/04/27 11:41:03;;;;;;;6.10;2.80;;;;;;;8.35;71.65;99053.40;107213;1258;62145;-38
2023/04/27 11:43:31;;;;;;;5.90;2.70;;;;;;;8.31;71.84;99054.79;107197;1257;60582;-38
2023/04/27 11:46:02;;;;;;;3.80;2.80;;;;;;;8.27;72.47;99058.75;107259;1257;76135;-38